Sharon, North Carolina
Current Conditions -  °F | °C
As of 12:15 PM on Sunday 23 Nov 2014 (Local Time) from KSVH Reporting Station
Light Rain Light Rain  
Wind Chill: 42°   Ceiling: 1900
Heat Index: 42°   Visibility: 7mi
Dew Point: 37°   Wind: 3mph
Humidity: 82%   Direction: 10°N
Pressure: 30.1"   Gusts: NA
Location:  35.8306°N, 80.9003°W
Report Text: KSVH 231715Z AUTO 01003KT 7SM -RA SCT007 OVC019 05/03 A3010 RMK AO2 P0001 T00540026
Loading
Personal Weather Stations






























Interactive Weather Map New forecast layout! Learn more

10-Day Weather Forecast

Advertisements
Track Severe Weather on mobile